sensor_id;sensor_type;location;lat;lon;timestamp;P1;durP1;ratioP1;P2;durP2;ratioP2
7247;SDS011;3665;51.034;13.642;2023-05-29T00:02:25;6.83;;;4.27;;
7247;SDS011;3665;51.034;13.642;2023-05-29T00:07:17;6.10;;;4.73;;
7247;SDS011;3665;51.034;13.642;2023-05-29T00:17:08;4.23;;;3.80;;
7247;SDS011;3665;51.034;13.642;2023-05-29T00:21:54;3.70;;;3.40;;
7247;SDS011;3665;51.034;13.642;2023-05-29T00:26:38;3.20;;;2.90;;
7247;SDS011;3665;51.034;13.642;2023-05-29T00:31:32;4.83;;;3.13;;
7247;SDS011;3665;51.034;13.642;2023-05-29T00:36:23;3.80;;;3.40;;
7247;SDS011;3665;51.034;13.642;2023-05-29T00:41:09;4.80;;;2.73;;
7247;SDS011;3665;51.034;13.642;2023-05-29T00:45:57;2.87;;;2.57;;
7247;SDS011;3665;51.034;13.642;2023-05-29T00:50:45;3.93;;;3.10;;
7247;SDS011;3665;51.034;13.642;2023-05-29T00:55:34;3.33;;;2.50;;
7247;SDS011;3665;51.034;13.642;2023-05-29T01:00:18;5.43;;;2.57;;
7247;SDS011;3665;51.034;13.642;2023-05-29T01:05:09;4.00;;;2.47;;
7247;SDS011;3665;51.034;13.642;2023-05-29T01:09:55;3.60;;;2.27;;
7247;SDS011;3665;51.034;13.642;2023-05-29T01:14:45;3.53;;;2.30;;
7247;SDS011;3665;51.034;13.642;2023-05-29T01:20:01;3.30;;;2.40;;
7247;SDS011;3665;51.034;13.642;2023-05-29T01:24:55;3.10;;;2.80;;
7247;SDS011;3665;51.034;13.642;2023-05-29T01:29:59;3.60;;;2.27;;
7247;SDS011;3665;51.034;13.642;2023-05-29T01:34:46;4.77;;;3.00;;
7247;SDS011;3665;51.034;13.642;2023-05-29T01:39:35;3.87;;;2.90;;
7247;SDS011;3665;51.034;13.642;2023-05-29T01:44:21;3.50;;;3.07;;
7247;SDS011;3665;51.034;13.642;2023-05-29T01:49:10;4.57;;;3.17;;
7247;SDS011;3665;51.034;13.642;2023-05-29T01:53:56;3.90;;;3.03;;
7247;SDS011;3665;51.034;13.642;2023-05-29T01:58:45;5.10;;;2.90;;
7247;SDS011;3665;51.034;13.642;2023-05-29T02:03:31;3.00;;;2.47;;
7247;SDS011;3665;51.034;13.642;2023-05-29T02:08:25;4.47;;;2.73;;
7247;SDS011;3665;51.034;13.642;2023-05-29T02:13:09;3.77;;;2.40;;
7247;SDS011;3665;51.034;13.642;2023-05-29T02:18:02;2.83;;;2.63;;
7247;SDS011;3665;51.034;13.642;2023-05-29T02:22:46;4.27;;;2.70;;
7247;SDS011;3665;51.034;13.642;2023-05-29T02:27:33;3.83;;;2.60;;
7247;SDS011;3665;51.034;13.642;2023-05-29T02:32:22;6.10;;;3.30;;
7247;SDS011;3665;51.034;13.642;2023-05-29T02:37:09;3.20;;;2.53;;
7247;SDS011;3665;51.034;13.642;2023-05-29T02:41:59;4.30;;;2.70;;
7247;SDS011;3665;51.034;13.642;2023-05-29T02:46:44;5.73;;;3.33;;
7247;SDS011;3665;51.034;13.642;2023-05-29T02:51:32;3.33;;;2.80;;
7247;SDS011;3665;51.034;13.642;2023-05-29T02:56:25;5.67;;;4.10;;
7247;SDS011;3665;51.034;13.642;2023-05-29T03:01:10;4.07;;;3.23;;
7247;SDS011;3665;51.034;13.642;2023-05-29T03:05:58;3.53;;;2.80;;
7247;SDS011;3665;51.034;13.642;2023-05-29T03:10:46;5.13;;;2.97;;
7247;SDS011;3665;51.034;13.642;2023-05-29T03:15:34;4.43;;;3.50;;
7247;SDS011;3665;51.034;13.642;2023-05-29T03:20:23;5.13;;;3.87;;
7247;SDS011;3665;51.034;13.642;2023-05-29T03:25:12;5.27;;;4.10;;
7247;SDS011;3665;51.034;13.642;2023-05-29T03:29:58;6.90;;;4.83;;
7247;SDS011;3665;51.034;13.642;2023-05-29T03:34:44;5.00;;;4.50;;
7247;SDS011;3665;51.034;13.642;2023-05-29T03:39:30;8.57;;;4.37;;
7247;SDS011;3665;51.034;13.642;2023-05-29T03:44:22;5.03;;;4.53;;
7247;SDS011;3665;51.034;13.642;2023-05-29T03:49:08;7.80;;;5.10;;
7247;SDS011;3665;51.034;13.642;2023-05-29T03:53:58;5.17;;;3.83;;
7247;SDS011;3665;51.034;13.642;2023-05-29T03:58:42;5.40;;;4.50;;
7247;SDS011;3665;51.034;13.642;2023-05-29T04:03:34;4.80;;;3.90;;
7247;SDS011;3665;51.034;13.642;2023-05-29T04:08:21;5.07;;;3.83;;
7247;SDS011;3665;51.034;13.642;2023-05-29T04:13:11;5.20;;;4.20;;
7247;SDS011;3665;51.034;13.642;2023-05-29T04:17:56;5.73;;;3.70;;
7247;SDS011;3665;51.034;13.642;2023-05-29T04:22:42;4.50;;;4.10;;
7247;SDS011;3665;51.034;13.642;2023-05-29T04:27:33;5.53;;;3.70;;
7247;SDS011;3665;51.034;13.642;2023-05-29T04:32:22;3.97;;;3.10;;
7247;SDS011;3665;51.034;13.642;2023-05-29T04:37:07;5.27;;;3.70;;
7247;SDS011;3665;51.034;13.642;2023-05-29T04:41:56;4.53;;;3.40;;
7247;SDS011;3665;51.034;13.642;2023-05-29T04:46:40;3.93;;;2.60;;
7247;SDS011;3665;51.034;13.642;2023-05-29T04:51:30;4.33;;;3.50;;
7247;SDS011;3665;51.034;13.642;2023-05-29T04:56:21;3.67;;;3.13;;
7247;SDS011;3665;51.034;13.642;2023-05-29T05:01:10;3.67;;;3.20;;
7247;SDS011;3665;51.034;13.642;2023-05-29T05:05:56;3.57;;;3.27;;
7247;SDS011;3665;51.034;13.642;2023-05-29T05:10:46;5.00;;;3.60;;
7247;SDS011;3665;51.034;13.642;2023-05-29T05:15:32;4.27;;;3.33;;
7247;SDS011;3665;51.034;13.642;2023-05-29T05:20:20;5.63;;;3.60;;
7247;SDS011;3665;51.034;13.642;2023-05-29T05:25:10;5.10;;;3.40;;
7247;SDS011;3665;51.034;13.642;2023-05-29T05:29:55;4.80;;;3.40;;
7247;SDS011;3665;51.034;13.642;2023-05-29T05:34:46;4.53;;;3.30;;
7247;SDS011;3665;51.034;13.642;2023-05-29T05:44:37;5.97;;;4.03;;
7247;SDS011;3665;51.034;13.642;2023-05-29T05:49:25;5.20;;;3.20;;
7247;SDS011;3665;51.034;13.642;2023-05-29T05:54:11;4.73;;;3.57;;
7247;SDS011;3665;51.034;13.642;2023-05-29T05:59:01;5.10;;;4.17;;
7247;SDS011;3665;51.034;13.642;2023-05-29T06:03:51;5.13;;;4.20;;
7247;SDS011;3665;51.034;13.642;2023-05-29T06:08:37;5.47;;;4.03;;
7247;SDS011;3665;51.034;13.642;2023-05-29T06:13:23;5.07;;;3.37;;
7247;SDS011;3665;51.034;13.642;2023-05-29T06:18:14;3.97;;;3.40;;
7247;SDS011;3665;51.034;13.642;2023-05-29T06:23:01;5.00;;;3.53;;
7247;SDS011;3665;51.034;13.642;2023-05-29T06:27:44;6.70;;;3.87;;
7247;SDS011;3665;51.034;13.642;2023-05-29T06:32:34;4.60;;;3.40;;
7247;SDS011;3665;51.034;13.642;2023-05-29T06:42:46;3.73;;;3.23;;
7247;SDS011;3665;51.034;13.642;2023-05-29T06:47:36;4.23;;;3.10;;
7247;SDS011;3665;51.034;13.642;2023-05-29T06:52:21;3.97;;;3.30;;
7247;SDS011;3665;51.034;13.642;2023-05-29T06:57:24;3.50;;;3.20;;
7247;SDS011;3665;51.034;13.642;2023-05-29T07:02:08;3.20;;;3.00;;
7247;SDS011;3665;51.034;13.642;2023-05-29T07:06:54;5.25;;;3.17;;
7247;SDS011;3665;51.034;13.642;2023-05-29T07:11:45;4.20;;;3.10;;
7247;SDS011;3665;51.034;13.642;2023-05-29T07:16:54;2.58;;;2.38;;
7247;SDS011;3665;51.034;13.642;2023-05-29T07:21:38;3.80;;;3.00;;
7247;SDS011;3665;51.034;13.642;2023-05-29T07:26:30;5.35;;;2.72;;
7247;SDS011;3665;51.034;13.642;2023-05-29T07:31:17;4.35;;;3.38;;
7247;SDS011;3665;51.034;13.642;2023-05-29T07:36:04;2.65;;;2.45;;
7247;SDS011;3665;51.034;13.642;2023-05-29T07:40:55;5.03;;;3.05;;
7247;SDS011;3665;51.034;13.642;2023-05-29T07:45:57;5.00;;;3.15;;
7247;SDS011;3665;51.034;13.642;2023-05-29T07:50:47;3.83;;;3.10;;
7247;SDS011;3665;51.034;13.642;2023-05-29T07:55:35;4.28;;;3.08;;
7247;SDS011;3665;51.034;13.642;2023-05-29T08:00:21;5.20;;;3.55;;
7247;SDS011;3665;51.034;13.642;2023-05-29T08:05:10;3.78;;;3.38;;
7247;SDS011;3665;51.034;13.642;2023-05-29T08:09:58;3.97;;;3.60;;
7247;SDS011;3665;51.034;13.642;2023-05-29T08:19:57;4.20;;;3.78;;
7247;SDS011;3665;51.034;13.642;2023-05-29T08:24:53;4.13;;;3.35;;
7247;SDS011;3665;51.034;13.642;2023-05-29T08:29:39;3.47;;;3.05;;
7247;SDS011;3665;51.034;13.642;2023-05-29T08:34:33;3.28;;;2.95;;
7247;SDS011;3665;51.034;13.642;2023-05-29T08:39:17;4.07;;;2.92;;
7247;SDS011;3665;51.034;13.642;2023-05-29T08:44:01;4.22;;;3.10;;
7247;SDS011;3665;51.034;13.642;2023-05-29T08:48:53;3.30;;;3.00;;
7247;SDS011;3665;51.034;13.642;2023-05-29T08:53:43;4.95;;;3.40;;
7247;SDS011;3665;51.034;13.642;2023-05-29T08:58:29;3.97;;;3.45;;
7247;SDS011;3665;51.034;13.642;2023-05-29T09:03:17;3.00;;;2.58;;
7247;SDS011;3665;51.034;13.642;2023-05-29T09:08:08;4.05;;;3.00;;
7247;SDS011;3665;51.034;13.642;2023-05-29T09:12:55;4.03;;;2.70;;
7247;SDS011;3665;51.034;13.642;2023-05-29T09:17:39;3.55;;;2.78;;
7247;SDS011;3665;51.034;13.642;2023-05-29T09:22:23;4.13;;;2.78;;
7247;SDS011;3665;51.034;13.642;2023-05-29T09:27:18;2.92;;;2.65;;
7247;SDS011;3665;51.034;13.642;2023-05-29T09:32:05;4.10;;;2.60;;
7247;SDS011;3665;51.034;13.642;2023-05-29T09:36:52;3.35;;;2.75;;
7247;SDS011;3665;51.034;13.642;2023-05-29T09:41:41;3.85;;;2.45;;
7247;SDS011;3665;51.034;13.642;2023-05-29T09:46:27;3.47;;;2.40;;
7247;SDS011;3665;51.034;13.642;2023-05-29T09:51:21;3.35;;;2.42;;
7247;SDS011;3665;51.034;13.642;2023-05-29T09:56:21;4.25;;;2.50;;
7247;SDS011;3665;51.034;13.642;2023-05-29T10:01:10;4.65;;;2.40;;
7247;SDS011;3665;51.034;13.642;2023-05-29T10:05:58;3.78;;;2.83;;
7247;SDS011;3665;51.034;13.642;2023-05-29T10:10:46;2.53;;;2.33;;
7247;SDS011;3665;51.034;13.642;2023-05-29T10:15:32;2.80;;;2.50;;
7247;SDS011;3665;51.034;13.642;2023-05-29T10:20:16;5.28;;;2.60;;
7247;SDS011;3665;51.034;13.642;2023-05-29T10:25:10;3.28;;;2.50;;
7247;SDS011;3665;51.034;13.642;2023-05-29T10:29:58;3.92;;;2.53;;
7247;SDS011;3665;51.034;13.642;2023-05-29T10:34:58;4.47;;;2.70;;
7247;SDS011;3665;51.034;13.642;2023-05-29T10:39:49;3.65;;;2.42;;
7247;SDS011;3665;51.034;13.642;2023-05-29T10:44:39;4.47;;;2.30;;
7247;SDS011;3665;51.034;13.642;2023-05-29T10:49:25;2.75;;;2.53;;
7247;SDS011;3665;51.034;13.642;2023-05-29T10:54:15;3.17;;;2.30;;
7247;SDS011;3665;51.034;13.642;2023-05-29T10:59:01;3.70;;;2.40;;
7247;SDS011;3665;51.034;13.642;2023-05-29T11:03:51;4.13;;;2.80;;
7247;SDS011;3665;51.034;13.642;2023-05-29T11:08:43;2.92;;;2.60;;
7247;SDS011;3665;51.034;13.642;2023-05-29T11:13:41;6.22;;;2.83;;
7247;SDS011;3665;51.034;13.642;2023-05-29T11:18:45;2.25;;;2.08;;
7247;SDS011;3665;51.034;13.642;2023-05-29T11:23:30;3.78;;;2.90;;
7247;SDS011;3665;51.034;13.642;2023-05-29T11:28:22;4.15;;;2.70;;
7247;SDS011;3665;51.034;13.642;2023-05-29T11:33:06;2.60;;;2.40;;
7247;SDS011;3665;51.034;13.642;2023-05-29T11:37:51;3.55;;;2.80;;
7247;SDS011;3665;51.034;13.642;2023-05-29T11:42:45;4.18;;;2.85;;
7247;SDS011;3665;51.034;13.642;2023-05-29T11:47:34;4.28;;;2.80;;
7247;SDS011;3665;51.034;13.642;2023-05-29T11:52:34;5.40;;;2.75;;
7247;SDS011;3665;51.034;13.642;2023-05-29T11:57:34;3.10;;;2.58;;
7247;SDS011;3665;51.034;13.642;2023-05-29T12:02:29;3.63;;;2.40;;
7247;SDS011;3665;51.034;13.642;2023-05-29T12:07:19;3.17;;;2.38;;
7247;SDS011;3665;51.034;13.642;2023-05-29T12:12:06;3.60;;;2.63;;
7247;SDS011;3665;51.034;13.642;2023-05-29T12:16:53;2.90;;;2.50;;
7247;SDS011;3665;51.034;13.642;2023-05-29T12:21:42;4.28;;;2.33;;
7247;SDS011;3665;51.034;13.642;2023-05-29T12:26:28;3.22;;;2.85;;
7247;SDS011;3665;51.034;13.642;2023-05-29T12:31:17;2.85;;;2.60;;
7247;SDS011;3665;51.034;13.642;2023-05-29T12:36:18;2.90;;;2.40;;
7247;SDS011;3665;51.034;13.642;2023-05-29T12:41:10;2.80;;;2.25;;
7247;SDS011;3665;51.034;13.642;2023-05-29T12:46:35;4.10;;;2.50;;
7247;SDS011;3665;51.034;13.642;2023-05-29T12:51:27;4.30;;;2.53;;
7247;SDS011;3665;51.034;13.642;2023-05-29T13:01:22;3.10;;;2.40;;
7247;SDS011;3665;51.034;13.642;2023-05-29T13:06:09;3.55;;;2.45;;
7247;SDS011;3665;51.034;13.642;2023-05-29T13:11:02;3.65;;;2.47;;
7247;SDS011;3665;51.034;13.642;2023-05-29T13:15:56;3.35;;;2.88;;
7247;SDS011;3665;51.034;13.642;2023-05-29T13:20:53;4.80;;;2.58;;
7247;SDS011;3665;51.034;13.642;2023-05-29T13:25:43;6.55;;;3.08;;
7247;SDS011;3665;51.034;13.642;2023-05-29T13:30:29;2.53;;;2.33;;
7247;SDS011;3665;51.034;13.642;2023-05-29T13:35:17;2.72;;;2.53;;
7247;SDS011;3665;51.034;13.642;2023-05-29T13:40:03;2.70;;;2.50;;
7247;SDS011;3665;51.034;13.642;2023-05-29T13:44:49;3.65;;;2.75;;
7247;SDS011;3665;51.034;13.642;2023-05-29T13:49:37;3.25;;;2.60;;
7247;SDS011;3665;51.034;13.642;2023-05-29T13:54:31;3.13;;;2.83;;
7247;SDS011;3665;51.034;13.642;2023-05-29T13:59:17;4.57;;;2.88;;
7247;SDS011;3665;51.034;13.642;2023-05-29T14:04:02;3.03;;;2.65;;
7247;SDS011;3665;51.034;13.642;2023-05-29T14:08:48;3.92;;;2.75;;
7247;SDS011;3665;51.034;13.642;2023-05-29T14:13:41;3.97;;;2.75;;
7247;SDS011;3665;51.034;13.642;2023-05-29T14:18:25;4.53;;;2.80;;
7247;SDS011;3665;51.034;13.642;2023-05-29T14:23:17;3.15;;;2.55;;
7247;SDS011;3665;51.034;13.642;2023-05-29T14:28:04;4.25;;;2.75;;
7247;SDS011;3665;51.034;13.642;2023-05-29T14:32:57;5.43;;;2.85;;
7247;SDS011;3665;51.034;13.642;2023-05-29T14:37:40;2.97;;;2.60;;
7247;SDS011;3665;51.034;13.642;2023-05-29T14:42:24;3.28;;;2.80;;
7247;SDS011;3665;51.034;13.642;2023-05-29T14:47:09;2.80;;;2.60;;
7247;SDS011;3665;51.034;13.642;2023-05-29T14:52:08;3.63;;;2.72;;
7247;SDS011;3665;51.034;13.642;2023-05-29T14:56:52;3.85;;;3.13;;
7247;SDS011;3665;51.034;13.642;2023-05-29T15:01:38;3.42;;;2.67;;
7247;SDS011;3665;51.034;13.642;2023-05-29T15:06:28;4.22;;;2.70;;
7247;SDS011;3665;51.034;13.642;2023-05-29T15:11:16;2.97;;;2.67;;
7247;SDS011;3665;51.034;13.642;2023-05-29T15:16:01;2.78;;;2.58;;
7247;SDS011;3665;51.034;13.642;2023-05-29T15:20:53;4.68;;;3.00;;
7247;SDS011;3665;51.034;13.642;2023-05-29T15:25:43;5.10;;;3.05;;
7247;SDS011;3665;51.034;13.642;2023-05-29T15:30:29;3.17;;;2.70;;
7247;SDS011;3665;51.034;13.642;2023-05-29T15:35:18;3.17;;;2.70;;
7247;SDS011;3665;51.034;13.642;2023-05-29T15:40:04;3.60;;;2.83;;
7247;SDS011;3665;51.034;13.642;2023-05-29T15:44:54;2.90;;;2.70;;
7247;SDS011;3665;51.034;13.642;2023-05-29T15:49:51;3.47;;;2.78;;
7247;SDS011;3665;51.034;13.642;2023-05-29T15:54:45;4.22;;;2.75;;
7247;SDS011;3665;51.034;13.642;2023-05-29T15:59:38;3.83;;;2.90;;
7247;SDS011;3665;51.034;13.642;2023-05-29T16:04:21;5.38;;;3.10;;
7247;SDS011;3665;51.034;13.642;2023-05-29T16:09:07;4.20;;;3.38;;
7247;SDS011;3665;51.034;13.642;2023-05-29T16:13:57;3.70;;;2.90;;
7247;SDS011;3665;51.034;13.642;2023-05-29T16:18:42;3.67;;;2.85;;
7247;SDS011;3665;51.034;13.642;2023-05-29T16:23:33;3.40;;;2.95;;
7247;SDS011;3665;51.034;13.642;2023-05-29T16:28:18;3.78;;;2.65;;
7247;SDS011;3665;51.034;13.642;2023-05-29T16:33:10;5.03;;;2.75;;
7247;SDS011;3665;51.034;13.642;2023-05-29T16:37:54;3.55;;;2.88;;
7247;SDS011;3665;51.034;13.642;2023-05-29T16:42:44;6.38;;;3.03;;
7247;SDS011;3665;51.034;13.642;2023-05-29T16:47:32;3.97;;;2.78;;
7247;SDS011;3665;51.034;13.642;2023-05-29T16:52:21;3.05;;;2.72;;
7247;SDS011;3665;51.034;13.642;2023-05-29T16:57:08;3.17;;;2.65;;
7247;SDS011;3665;51.034;13.642;2023-05-29T17:01:58;4.07;;;2.70;;
7247;SDS011;3665;51.034;13.642;2023-05-29T17:06:46;3.17;;;2.70;;
7247;SDS011;3665;51.034;13.642;2023-05-29T17:11:31;5.45;;;3.33;;
7247;SDS011;3665;51.034;13.642;2023-05-29T17:16:19;3.45;;;3.15;;
7247;SDS011;3665;51.034;13.642;2023-05-29T17:21:18;2.70;;;2.40;;
7247;SDS011;3665;51.034;13.642;2023-05-29T17:26:13;5.37;;;2.80;;
7247;SDS011;3665;51.034;13.642;2023-05-29T17:30:57;4.10;;;2.27;;
7247;SDS011;3665;51.034;13.642;2023-05-29T17:36:07;2.90;;;2.53;;
7247;SDS011;3665;51.034;13.642;2023-05-29T17:40:52;3.23;;;2.37;;
7247;SDS011;3665;51.034;13.642;2023-05-29T17:45:40;2.93;;;2.63;;
7247;SDS011;3665;51.034;13.642;2023-05-29T17:50:30;3.90;;;2.50;;
7247;SDS011;3665;51.034;13.642;2023-05-29T17:55:18;3.03;;;2.37;;
7247;SDS011;3665;51.034;13.642;2023-05-29T18:00:03;4.60;;;2.80;;
7247;SDS011;3665;51.034;13.642;2023-05-29T18:04:56;3.07;;;2.43;;
7247;SDS011;3665;51.034;13.642;2023-05-29T18:09:42;3.20;;;2.50;;
7247;SDS011;3665;51.034;13.642;2023-05-29T18:14:26;4.77;;;3.00;;
7247;SDS011;3665;51.034;13.642;2023-05-29T18:19:27;4.60;;;2.70;;
7247;SDS011;3665;51.034;13.642;2023-05-29T18:24:21;5.43;;;3.00;;
7247;SDS011;3665;51.034;13.642;2023-05-29T18:29:11;4.47;;;2.97;;
7247;SDS011;3665;51.034;13.642;2023-05-29T18:33:56;4.00;;;3.00;;
7247;SDS011;3665;51.034;13.642;2023-05-29T18:38:42;3.13;;;2.80;;
7247;SDS011;3665;51.034;13.642;2023-05-29T18:43:36;5.30;;;2.90;;
7247;SDS011;3665;51.034;13.642;2023-05-29T18:48:21;4.33;;;3.13;;
7247;SDS011;3665;51.034;13.642;2023-05-29T18:53:08;3.70;;;3.17;;
7247;SDS011;3665;51.034;13.642;2023-05-29T18:57:59;4.63;;;3.17;;
7247;SDS011;3665;51.034;13.642;2023-05-29T19:02:50;4.13;;;3.10;;
7247;SDS011;3665;51.034;13.642;2023-05-29T19:07:34;6.17;;;3.33;;
7247;SDS011;3665;51.034;13.642;2023-05-29T19:12:22;3.77;;;3.00;;
7247;SDS011;3665;51.034;13.642;2023-05-29T19:17:06;4.80;;;3.13;;
7247;SDS011;3665;51.034;13.642;2023-05-29T19:22:06;4.43;;;3.07;;
7247;SDS011;3665;51.034;13.642;2023-05-29T19:27:01;4.70;;;2.87;;
7247;SDS011;3665;51.034;13.642;2023-05-29T19:31:51;3.00;;;2.70;;
7247;SDS011;3665;51.034;13.642;2023-05-29T19:36:37;3.40;;;3.00;;
7247;SDS011;3665;51.034;13.642;2023-05-29T19:41:33;4.37;;;2.87;;
7247;SDS011;3665;51.034;13.642;2023-05-29T19:46:31;3.00;;;2.67;;
7247;SDS011;3665;51.034;13.642;2023-05-29T19:51:16;5.97;;;3.40;;
7247;SDS011;3665;51.034;13.642;2023-05-29T19:56:02;3.73;;;3.40;;
7247;SDS011;3665;51.034;13.642;2023-05-29T20:00:52;4.07;;;3.30;;
7247;SDS011;3665;51.034;13.642;2023-05-29T20:05:40;4.37;;;3.00;;
7247;SDS011;3665;51.034;13.642;2023-05-29T20:10:37;4.13;;;2.80;;
7247;SDS011;3665;51.034;13.642;2023-05-29T20:15:42;3.30;;;2.90;;
7247;SDS011;3665;51.034;13.642;2023-05-29T20:25:40;4.67;;;3.30;;
7247;SDS011;3665;51.034;13.642;2023-05-29T20:30:29;4.20;;;3.03;;
7247;SDS011;3665;51.034;13.642;2023-05-29T20:35:16;7.57;;;2.67;;
7247;SDS011;3665;51.034;13.642;2023-05-29T20:40:07;4.13;;;3.00;;
7247;SDS011;3665;51.034;13.642;2023-05-29T20:44:52;3.77;;;2.63;;
7247;SDS011;3665;51.034;13.642;2023-05-29T20:49:42;5.57;;;2.30;;
7247;SDS011;3665;51.034;13.642;2023-05-29T20:54:26;6.57;;;2.87;;
7247;SDS011;3665;51.034;13.642;2023-05-29T20:59:15;3.20;;;2.30;;
7247;SDS011;3665;51.034;13.642;2023-05-29T21:04:05;3.87;;;2.30;;
7247;SDS011;3665;51.034;13.642;2023-05-29T21:08:55;2.87;;;2.20;;
7247;SDS011;3665;51.034;13.642;2023-05-29T21:13:40;3.70;;;2.07;;
7247;SDS011;3665;51.034;13.642;2023-05-29T21:18:33;5.20;;;2.70;;
7247;SDS011;3665;51.034;13.642;2023-05-29T21:23:16;6.97;;;2.50;;
7247;SDS011;3665;51.034;13.642;2023-05-29T21:28:06;3.70;;;2.10;;
7247;SDS011;3665;51.034;13.642;2023-05-29T21:32:56;3.37;;;2.37;;
7247;SDS011;3665;51.034;13.642;2023-05-29T21:37:44;4.20;;;1.90;;
7247;SDS011;3665;51.034;13.642;2023-05-29T21:42:31;3.60;;;2.13;;
7247;SDS011;3665;51.034;13.642;2023-05-29T21:47:16;6.00;;;2.27;;
7247;SDS011;3665;51.034;13.642;2023-05-29T21:52:06;4.67;;;2.37;;
7247;SDS011;3665;51.034;13.642;2023-05-29T21:56:52;3.17;;;2.40;;
7247;SDS011;3665;51.034;13.642;2023-05-29T22:01:42;4.60;;;1.97;;
7247;SDS011;3665;51.034;13.642;2023-05-29T22:06:26;3.07;;;2.20;;
7247;SDS011;3665;51.034;13.642;2023-05-29T22:11:17;4.27;;;2.10;;
7247;SDS011;3665;51.034;13.642;2023-05-29T22:16:15;3.50;;;2.00;;
7247;SDS011;3665;51.034;13.642;2023-05-29T22:21:09;3.10;;;1.83;;
7247;SDS011;3665;51.034;13.642;2023-05-29T22:25:57;5.77;;;2.67;;
7247;SDS011;3665;51.034;13.642;2023-05-29T22:30:43;3.53;;;1.90;;
7247;SDS011;3665;51.034;13.642;2023-05-29T22:35:36;2.47;;;2.00;;
7247;SDS011;3665;51.034;13.642;2023-05-29T22:40:21;3.40;;;2.27;;
7247;SDS011;3665;51.034;13.642;2023-05-29T22:45:14;3.20;;;1.93;;
7247;SDS011;3665;51.034;13.642;2023-05-29T22:49:58;4.77;;;2.50;;
7247;SDS011;3665;51.034;13.642;2023-05-29T22:54:46;5.63;;;2.20;;
7247;SDS011;3665;51.034;13.642;2023-05-29T22:59:30;4.17;;;1.77;;
7247;SDS011;3665;51.034;13.642;2023-05-29T23:04:17;3.80;;;2.00;;
7247;SDS011;3665;51.034;13.642;2023-05-29T23:09:12;2.40;;;1.90;;
7247;SDS011;3665;51.034;13.642;2023-05-29T23:14:02;4.10;;;2.13;;
7247;SDS011;3665;51.034;13.642;2023-05-29T23:18:45;2.27;;;1.70;;
7247;SDS011;3665;51.034;13.642;2023-05-29T23:23:29;2.30;;;1.90;;
7247;SDS011;3665;51.034;13.642;2023-05-29T23:28:22;4.13;;;1.97;;
7247;SDS011;3665;51.034;13.642;2023-05-29T23:33:09;4.97;;;2.50;;
7247;SDS011;3665;51.034;13.642;2023-05-29T23:38:01;4.00;;;2.20;;
7247;SDS011;3665;51.034;13.642;2023-05-29T23:42:46;3.70;;;1.87;;
7247;SDS011;3665;51.034;13.642;2023-05-29T23:47:29;4.77;;;2.20;;
7247;SDS011;3665;51.034;13.642;2023-05-29T23:52:23;3.50;;;2.13;;
7247;SDS011;3665;51.034;13.642;2023-05-29T23:57:08;3.57;;;2.30;;
